Αναφορές METAR

 

LGTS - Thessaloniki/Mik, Greece
Απόσταση από το σταθμό: ΝΝΔ 77km
Ενημερώθηκε: 01/03/2017 20:20
Ασθενής Βροχή, Κυρίως Νεφελώδης
Ασθενής Βροχή, Κυρίως Νεφελώδης
 Ανεμος από Δ
Ανεμος: Δ 24 km/h, Ριπή: 43 km/h
Θερμοκρασία: 11°C
Σημείο Δρόσου: 8°C
Υγρασία: 82%
Βαρόμετρο: 1008 hPa
Summary: Ασθενής Βροχή
Νέφωση: Κυρίως Νεφελώδης
Ορατότητα: 8 km
Λεπτομέρειες νέφωσης: Διάσπαρτα Νέφη 213 m
Διάσπαρτα Νέφη 610 m
Κυρίως Νεφελώδης 914 m
2017/03/01 18:20 LGTS 011820Z 28013G23KT 8000 -RA FEW007 FEW020TCU BKN030 11/08 Q1008 NOSIG
LGKV - Kavala/Chrisoupo, Greece
Απόσταση από το σταθμό: ΑΝΑ 120km
Ενημερώθηκε: 01/03/2017 20:20
Μερικώς Νεφελώδης
Μερικώς Νεφελώδης
 Ανεμος από Β
Ανεμος: Β 7 km/h
Θερμοκρασία: 10°C
Wind Chill: 9°C
Σημείο Δρόσου: 9°C
Υγρασία: 94%
Βαρόμετρο: 1007 hPa
Νέφωση: Μερικώς Νεφελώδης
Ορατότητα: 10 km
Λεπτομέρειες νέφωσης: Διάσπαρτα Νέφη 549 m
Μερικώς Νεφελώδης 2438 m
2017/03/01 18:20 LGKV 011820Z 01004KT 9999 FEW018 SCT080 10/09 Q1007
 
LGKZ - Kozani (civ/Army, Greece
Απόσταση από το σταθμό: ΝΔ 154km
Ενημερώθηκε: 01/03/2017 19:50
Νεφοσκεπής
Νεφοσκεπής
 Ανεμος από ΒΔ
Ανεμος: ΒΔ 13 km/h
Θερμοκρασία: 7°C
Wind Chill: 5°C
Σημείο Δρόσου: 2°C
Υγρασία: 71%
Βαρόμετρο: 1010 hPa
Νέφωση: Νεφοσκεπής
Ορατότητα: 10 km
Λεπτομέρειες νέφωσης: Κυρίως Νεφελώδης 610 m
Νεφοσκεπής 2134 m
2017/03/01 17:50 LGKZ 011750Z 31007KT 9999 BKN020 OVC070 07/02 Q1010
LWSK - Skopje/Petrovac, Macedonia
Απόσταση από το σταθμό: ΔΒΔ 159km
Ενημερώθηκε: 01/03/2017 20:30
Αίθριος
Αίθριος
 Ανεμος από ΒΑ
Ανεμος: ΒΑ 20 km/h
Θερμοκρασία: 10°C
Wind Chill: 7°C
Σημείο Δρόσου: 5°C
Υγρασία: 71%
Βαρόμετρο: 1008 hPa
Summary: Αίθριος
Ορατότητα: greater than 10 km
2017/03/01 18:30 LWSK 011830Z 04011KT CAVOK 10/05 Q1008 NOSIG
 
LBSF - Sofia (observato, Bulgaria
Απόσταση από το σταθμό: Β 164km
Ενημερώθηκε: 01/03/2017 20:30
Ασθενής Βροχή, Showers, Νεφοσκεπής
Ασθενής Βροχή, Showers, Νεφοσκεπής
 Ανεμος από Δ
Ανεμος: Δ 31 km/h
Θερμοκρασία: 6°C
Wind Chill: 1°C
Σημείο Δρόσου: 6°C
Υγρασία: 100%
Βαρόμετρο: 1008 hPa
Summary: Ασθενής Βροχή, Showers
Νέφωση: Νεφοσκεπής
Ορατότητα: 10 km
Λεπτομέρειες νέφωσης: Διάσπαρτα Νέφη 335 m
Μερικώς Νεφελώδης 1006 m
Νεφοσκεπής 1189 m
2017/03/01 18:30 LBSF 011830Z 27017KT 9999 -SHRA FEW011 SCT033TCU OVC039 06/06 Q1008 TEMPO 28022G32KT 5000 SHRA
LBPD - Plovdiv, Bulgaria
Απόσταση από το σταθμό: ΒΑ 168km
Ενημερώθηκε: 01/03/2017 20:30
Mist, Νεφοσκεπής
Mist, Νεφοσκεπής
 Ανεμος από Β
Ανεμος: Β 6 km/h
Θερμοκρασία: 9°C
Σημείο Δρόσου: 8°C
Υγρασία: 94%
Βαρόμετρο: 1005 hPa
Summary: Mist
Νέφωση: Νεφοσκεπής
Ορατότητα: 7 km
Λεπτομέρειες νέφωσης: Νεφοσκεπής 396 m
2017/03/01 18:30 LBPD 011830Z AUTO 35003KT 310V020 7000 BR OVC013/// 09/08 Q1005 NOSIG
 
LWOH - Ohrid, Macedonia
Απόσταση από το σταθμό: Δ 204km
Ενημερώθηκε: 01/03/2017 17:00
ΜΗ ΠΡΟΣΦΑΤΟ METAR
Ασθενής Βροχή, Νεφοσκεπής
Ασθενής Βροχή, Νεφοσκεπής
 Ανεμος από Δ
Ανεμος: Δ 17 km/h, Ριπή: 35 km/h
Θερμοκρασία: 6°C
Wind Chill: 3°C
Σημείο Δρόσου: 3°C
Υγρασία: 81%
Βαρόμετρο: 1009 hPa
Summary: Ασθενής Βροχή
Νέφωση: Νεφοσκεπής
Ορατότητα: 8 km
Λεπτομέρειες νέφωσης: Μερικώς Νεφελώδης 1067 m
Κυρίως Νεφελώδης 1524 m
Νεφοσκεπής 2438 m
2017/03/01 15:00 LWOH 011500Z 26009G19KT 8000 -RA SCT035 BKN050 OVC080 06/03 Q1009
LGLM - Limnos Island Ar, Greece
Απόσταση από το σταθμό: ΝΑ 220km
Ενημερώθηκε: 01/03/2017 20:20
Διάσπαρτα Νέφη
Διάσπαρτα Νέφη
 Ανεμος από ΝΝΔ
Ανεμος: ΝΝΔ 7 km/h
Θερμοκρασία: 13°C
Σημείο Δρόσου: 12°C
Υγρασία: 94%
Βαρόμετρο: 1007 hPa
Νέφωση: Διάσπαρτα Νέφη
Ορατότητα: 10 km
Λεπτομέρειες νέφωσης: Διάσπαρτα Νέφη 305 m
2017/03/01 18:20 LGLM 011820Z 20004KT 9999 FEW010 13/12 Q1007
 
LGBL - Nea Anchialos, Greece
Απόσταση από το σταθμό: Ν 221km
Ενημερώθηκε: 01/03/2017 19:50
Μερικώς Νεφελώδης
Μερικώς Νεφελώδης
 Ανεμος από ΒΒΔ
Ανεμος: ΒΒΔ 15 km/h
Θερμοκρασία: 16°C
Σημείο Δρόσου: 5°C
Υγρασία: 48%
Βαρόμετρο: 1007 hPa
Νέφωση: Μερικώς Νεφελώδης
Ορατότητα: 10 km
Λεπτομέρειες νέφωσης: Διάσπαρτα Νέφη 914 m
Μερικώς Νεφελώδης 2438 m
2017/03/01 17:50 LGBL 011750Z 33008KT 9999 FEW030 SCT080 16/05 Q1007
LGSK - Skiathos Island, Greece
Απόσταση από το σταθμό: Ν 223km
Ενημερώθηκε: 01/03/2017 19:50
Μερικώς Νεφελώδης
Μερικώς Νεφελώδης
 Ανεμος από ΝΝΔ
Ανεμος: ΝΝΔ 7 km/h
Θερμοκρασία: 13°C
Σημείο Δρόσου: 11°C
Υγρασία: 88%
Βαρόμετρο: 1007 hPa
Νέφωση: Μερικώς Νεφελώδης
Ορατότητα: 10 km
Λεπτομέρειες νέφωσης: Διάσπαρτα Νέφη 610 m
Μερικώς Νεφελώδης 5486 m
2017/03/01 17:50 LGSK 011750Z 20004KT 9999 FEW020 SCT180 13/11 Q1007
 
LGAL - Alexandroupolis, Greece
Απόσταση από το σταθμό: Α 231km
Ενημερώθηκε: 01/03/2017 20:20
Κυρίως Νεφελώδης
Κυρίως Νεφελώδης
 Ανεμος από ΔΒΔ
Ανεμος: ΔΒΔ 7 km/h
Θερμοκρασία: 13°C
Σημείο Δρόσου: 12°C
Υγρασία: 94%
Βαρόμετρο: 1007 hPa
Νέφωση: Κυρίως Νεφελώδης
Ορατότητα: 7 km
Λεπτομέρειες νέφωσης: Διάσπαρτα Νέφη 305 m
Κυρίως Νεφελώδης 549 m
2017/03/01 18:20 LGAL 011820Z 29004KT 7000 FEW010 BKN018 13/12 Q1007
BKPR - Prishtina, Yugoslavia
Απόσταση από το σταθμό: ΒΔ 240km
Ενημερώθηκε: 01/03/2017 20:30
Κυρίως Νεφελώδης
Κυρίως Νεφελώδης
 Ανεμος από Δ
Ανεμος: Δ 17 km/h
Θερμοκρασία: 7°C
Wind Chill: 4°C
Σημείο Δρόσου: 1°C
Υγρασία: 66%
Βαρόμετρο: 1009 hPa
Νέφωση: Κυρίως Νεφελώδης
Ορατότητα: 10 km
Λεπτομέρειες νέφωσης: Μερικώς Νεφελώδης 1219 m
Κυρίως Νεφελώδης 2438 m
2017/03/01 18:30 BKPR 011830Z 27009KT 9999 SCT040 BKN080 07/01 Q1009 NOSIG RMK 17010095
 
LGIO - Ioannina, Greece
Απόσταση από το σταθμό: ΝΔ 262km
Ενημερώθηκε: 01/03/2017 20:20
Κυρίως Νεφελώδης
Κυρίως Νεφελώδης
 Ανεμος από μεταβλητός
Ανεμος: μεταβλητός 0 km/h
Θερμοκρασία: 7°C
Σημείο Δρόσου: 3°C
Υγρασία: 76%
Βαρόμετρο: 1012 hPa
Νέφωση: Κυρίως Νεφελώδης
Ορατότητα: 10 km
Λεπτομέρειες νέφωσης: Κυρίως Νεφελώδης 1067 m
2017/03/01 18:20 LGIO 011820Z /////KT 9999 BKN035 07/03 Q1012
LYNI - Nis, Yugoslavia
Απόσταση από το σταθμό: ΒΒΔ 262km
Ενημερώθηκε: 01/03/2017 20:30
Ασθενής Βροχή, Κυρίως Νεφελώδης
Ασθενής Βροχή, Κυρίως Νεφελώδης
 Ανεμος από ΒΔ
Ανεμος: ΒΔ 13 km/h
Θερμοκρασία: 6°C
Wind Chill: 3°C
Σημείο Δρόσου: 6°C
Υγρασία: 100%
Βαρόμετρο: 1011 hPa
Summary: Ασθενής Βροχή
Νέφωση: Κυρίως Νεφελώδης
Ορατότητα: 10 km
Λεπτομέρειες νέφωσης: Μερικώς Νεφελώδης 396 m
Κυρίως Νεφελώδης 1219 m
2017/03/01 18:30 LYNI 011830Z 32007KT 280V360 9999 -RA SCT013 BKN040 06/06 Q1011
 
LGSY - Skiros, Greece
Απόσταση από το σταθμό: ΝΝΑ 268km
Ενημερώθηκε: 01/03/2017 19:50
Διάσπαρτα Νέφη
Διάσπαρτα Νέφη
 Ανεμος από Ν
Ανεμος: Ν 22 km/h
Θερμοκρασία: 15°C
Σημείο Δρόσου: 10°C
Υγρασία: 72%
Βαρόμετρο: 1006 hPa
Νέφωση: Διάσπαρτα Νέφη
Ορατότητα: 10 km
Λεπτομέρειες νέφωσης: Διάσπαρτα Νέφη 610 m
2017/03/01 17:50 LGSY 011750Z 17012KT 9999 FEW020 15/10 Q1006 RMK SCT080 SCT180 BLU
LATI - Tirana, Albania
Απόσταση από το σταθμό: Δ 290km
Ενημερώθηκε: 01/03/2017 20:50
Μερικώς Νεφελώδης
Μερικώς Νεφελώδης
 Ανεμος από ΝΝΑ
Ανεμος: ΝΝΑ 9 km/h
Θερμοκρασία: 7°C
Wind Chill: 6°C
Σημείο Δρόσου: 6°C
Υγρασία: 93%
Βαρόμετρο: 1013 hPa
Νέφωση: Μερικώς Νεφελώδης
Ορατότητα: 7 km
Λεπτομέρειες νέφωσης: Μερικώς Νεφελώδης 1676 m
2017/03/01 18:50 LATI 011850Z 16005KT 7000 SCT055 07/06 Q1013 NOSIG
 
LBGO - Gorna Orechovist, Bulgaria
Απόσταση από το σταθμό: ΒΑ 300km
Ενημερώθηκε: 01/03/2017 20:30
Διάσπαρτα Νέφη
Διάσπαρτα Νέφη
 Ανεμος από Α
Ανεμος: Α 7 km/h
Θερμοκρασία: 16°C
Σημείο Δρόσου: 6°C
Υγρασία: 52%
Βαρόμετρο: 1002 hPa
Νέφωση: Διάσπαρτα Νέφη
Ορατότητα: 10 km
Λεπτομέρειες νέφωσης: Διάσπαρτα Νέφη 2560 m
2017/03/01 18:30 LBGO 011830Z AUTO 10004KT 030V140 9999 FEW084/// 16/06 Q1002
LGPZ - Preveza/Aktion, Greece
Απόσταση από το σταθμό: ΝΔ 328km
Ενημερώθηκε: 01/03/2017 19:50
Κυρίως Νεφελώδης
Κυρίως Νεφελώδης
 Ανεμος από ΝΔ
Ανεμος: ΝΔ 24 km/h
Θερμοκρασία: 14°C
Σημείο Δρόσου: 11°C
Υγρασία: 82%
Βαρόμετρο: 1011 hPa
Νέφωση: Κυρίως Νεφελώδης
Ορατότητα: 10 km
Λεπτομέρειες νέφωσης: Μερικώς Νεφελώδης 610 m
Κυρίως Νεφελώδης 914 m
Κυρίως Νεφελώδης 2438 m
2017/03/01 17:50 LGPZ 011750Z 22013KT 9999 SCT020TCU BKN030 BKN080 14/11 Q1011 RERA
 
LGKR - Ioannis Kapodist, Greece
Απόσταση από το σταθμό: ΔΝΔ 330km
Ενημερώθηκε: 01/03/2017 20:20
Μερικώς Νεφελώδης
Μερικώς Νεφελώδης
 Ανεμος από ΒΒΔ
Ανεμος: ΒΒΔ 13 km/h
Θερμοκρασία: 12°C
Σημείο Δρόσου: 8°C
Υγρασία: 77%
Βαρόμετρο: 1012 hPa
Νέφωση: Μερικώς Νεφελώδης
Ορατότητα: 10 km
Λεπτομέρειες νέφωσης: Μερικώς Νεφελώδης 549 m
Μερικώς Νεφελώδης 914 m
2017/03/01 18:20 LGKR 011820Z 33007KT 9999 SCT018TCU SCT030 12/08 Q1012 NOSIG
LGEL - Elefsis (hel-Afb, Greece
Απόσταση από το σταθμό: Ν 347km
Ενημερώθηκε: 01/03/2017 20:20
Διάσπαρτα Νέφη
Διάσπαρτα Νέφη
 Ανεμος από calm
Ανεμος: Απνοια
Θερμοκρασία: 14°C
Σημείο Δρόσου: 8°C
Υγρασία: 67%
Βαρόμετρο: 1009 hPa
Νέφωση: Διάσπαρτα Νέφη
Ορατότητα: 10 km
Λεπτομέρειες νέφωσης: Διάσπαρτα Νέφη 762 m
2017/03/01 18:20 LGEL 011820Z 00000KT 9999 FEW025 14/08 Q1009


 ♦     ♦     ♦     Ποτέ μη βασίζετε κρίσιμες αποφάσεις σ'αυτές ή οποιεσδήποτε πληροφορίες καιρού από το Internet     ♦     ♦     ♦